Alger, OH

4:38 AM EST on January 27, 2015 (GMT -0500)
Ada | Change Station
CLOSE
Current Station
Personal Weather Station
Location: Ada, OH
Elevation: 912 ft
Nearby Weather Stations

Elev 912 ft 40.82 °N, 83.86 °W | Updated 0 second ago

Partly Cloudy
Partly Cloudy
8.5 °F
Feels Like 8 °F
N
0.0
Wind Variable Wind from SE
Gusts 0.0 mph

Today
High -- | Low -- °F
--% Chance of Precip.
Yesterday
High -- | Low -- °F
Precip. -- in
7:49 AM 5:46 PM
First Quarter, 52% visible
Pressure 29.99 in
Visibility 5.0 miles
Clouds Clear
Windchill 8 °F
Dew Point 6 °F
Humidity 91%
Rainfall 0.00 in
Snow Depth Not available.
UV 0 out of 12
Pollen .10 out of 12
Air Quality Not available.
Flu Activity Not available.
METAR KAOH 270853Z AUTO 09004KT 5SM HZ CLR M13/M16 A2993 RMK AO2 SLP154 T11331161 55000

More Conditions Fewer Conditions

Pressure 29.99 in
Visibility 5.0 miles
Clouds Clear
Windchill 8 °F
Dew Point 6 °F
Humidity 91%
Rainfall 0.00 in
Snow Depth Not available.
UV 0 out of 12
Pollen .10 out of 12
Air Quality Not available.
Flu Activity Not available.
METAR KAOH 270853Z AUTO 09004KT 5SM HZ CLR M13/M16 A2993 RMK AO2 SLP154 T11331161 55000

More Conditions Fewer Conditions

10-Day Weather Forecast

Almanac

Astronomy

Jan. 27, 2015 Rise Set
Actual Time
Civil Twilight
Nautical Twilight
Astronomical Twilight
Moon
Length of Visible Light
Length of Day
Tomorrow will be .
, % of the Moon is Illuminated

Today's Extremes

State Highs State Lows

Community

WunderPhotos

Upload Photos

1,790,555 photos uploaded!

WunderBlogs® & News

Nearby

Air Quality

  Air Quality AQ Index Pollutant
Not available.

Snow Depth

Station Depth Elevation

Earthquake Activity

City Distance Mag. Time & Date
Minimum magnitude displayed is 2.5.

Coastal Water Temperatures

Place Temperature

Nearby Weather Stations